sensor_id;sensor_type;location;lat;lon;timestamp;pressure;altitude;pressure_sealevel;temperature;humidity
74474;BME280;62922;-6.168;106.796;2023-03-11T00:00:03;101101.22;;;29.72;67.72
74474;BME280;62922;-6.168;106.796;2023-03-11T00:02:33;101095.91;;;29.70;67.77
74474;BME280;62922;-6.168;106.796;2023-03-11T00:04:59;101096.72;;;29.70;67.85
74474;BME280;62922;-6.168;106.796;2023-03-11T00:07:25;101095.91;;;29.70;67.65
74474;BME280;62922;-6.168;106.796;2023-03-11T00:09:51;101094.75;;;29.71;67.53
74474;BME280;62922;-6.168;106.796;2023-03-11T00:12:16;101093.09;;;29.70;67.88
74474;BME280;62922;-6.168;106.796;2023-03-11T00:14:42;101093.09;;;29.70;67.63
74474;BME280;62922;-6.168;106.796;2023-03-11T00:17:08;101095.06;;;29.69;67.79
74474;BME280;62922;-6.168;106.796;2023-03-11T00:19:34;101108.31;;;29.69;67.32
74474;BME280;62922;-6.168;106.796;2023-03-11T00:22:00;101111.09;;;29.69;67.80
74474;BME280;62922;-6.168;106.796;2023-03-11T00:24:26;101116.41;;;29.70;67.61
74474;BME280;62922;-6.168;106.796;2023-03-11T00:26:52;101111.09;;;29.69;67.60
74474;BME280;62922;-6.168;106.796;2023-03-11T00:29:18;101127.66;;;29.70;67.60
74474;BME280;62922;-6.168;106.796;2023-03-11T00:31:44;101126.84;;;29.70;67.41
74474;BME280;62922;-6.168;106.796;2023-03-11T00:34:10;101135.28;;;29.70;67.64
74474;BME280;62922;-6.168;106.796;2023-03-11T00:36:36;101136.09;;;29.70;67.64
74474;BME280;62922;-6.168;106.796;2023-03-11T00:39:04;101136.94;;;29.71;67.69
74474;BME280;62922;-6.168;106.796;2023-03-11T00:41:32;101143.72;;;29.70;67.66
74474;BME280;62922;-6.168;106.796;2023-03-11T00:43:58;101143.72;;;29.70;67.61
74474;BME280;62922;-6.168;106.796;2023-03-11T00:46:24;101142.56;;;29.71;67.62
74474;BME280;62922;-6.168;106.796;2023-03-11T00:48:50;101148.19;;;29.71;67.62
74474;BME280;62922;-6.168;106.796;2023-03-11T00:51:18;101151.00;;;29.71;67.80
74474;BME280;62922;-6.168;106.796;2023-03-11T00:53:44;101153.81;;;29.71;67.89
74474;BME280;62922;-6.168;106.796;2023-03-11T00:56:11;101160.59;;;29.70;68.01
74474;BME280;62922;-6.168;106.796;2023-03-11T00:58:38;101160.91;;;29.68;68.20
74474;BME280;62922;-6.168;106.796;2023-03-11T01:01:06;101157.78;;;29.70;68.79
74474;BME280;62922;-6.168;106.796;2023-03-11T01:03:33;101165.06;;;29.71;69.24
74474;BME280;62922;-6.168;106.796;2023-03-11T01:05:59;101169.03;;;29.70;69.10
74474;BME280;62922;-6.168;106.796;2023-03-11T01:08:24;101169.84;;;29.70;69.25
74474;BME280;62922;-6.168;106.796;2023-03-11T01:10:51;101176.66;;;29.69;68.99
74474;BME280;62922;-6.168;106.796;2023-03-11T01:13:17;101171.03;;;29.69;69.16
74474;BME280;62922;-6.168;106.796;2023-03-11T01:15:43;101174.34;;;29.72;69.09
74474;BME280;62922;-6.168;106.796;2023-03-11T01:18:09;101182.47;;;29.73;69.06
74474;BME280;62922;-6.168;106.796;2023-03-11T01:20:35;101181.63;;;29.73;69.04
74474;BME280;62922;-6.168;106.796;2023-03-11T01:23:02;101188.09;;;29.73;69.23
74474;BME280;62922;-6.168;106.796;2023-03-11T01:25:28;101192.59;;;29.74;68.79
74474;BME280;62922;-6.168;106.796;2023-03-11T01:27:54;101195.69;;;29.73;69.15
74474;BME280;62922;-6.168;106.796;2023-03-11T01:30:21;101201.03;;;29.74;69.02
74474;BME280;62922;-6.168;106.796;2023-03-11T01:32:47;101204.31;;;29.76;68.82
74474;BME280;62922;-6.168;106.796;2023-03-11T01:35:15;101210.78;;;29.77;68.95
74474;BME280;62922;-6.168;106.796;2023-03-11T01:37:41;101208.81;;;29.77;69.09
74474;BME280;62922;-6.168;106.796;2023-03-11T01:40:10;101210.78;;;29.77;69.00
74474;BME280;62922;-6.168;106.796;2023-03-11T01:42:38;101209.97;;;29.76;68.89
74474;BME280;62922;-6.168;106.796;2023-03-11T01:45:23;101206.00;;;29.77;69.00
74474;BME280;62922;-6.168;106.796;2023-03-11T01:47:49;101205.16;;;29.77;68.91
74474;BME280;62922;-6.168;106.796;2023-03-11T01:50:15;101206.00;;;29.77;68.86
74474;BME280;62922;-6.168;106.796;2023-03-11T01:52:42;101210.47;;;29.78;68.99
74474;BME280;62922;-6.168;106.796;2023-03-11T01:55:09;101221.72;;;29.78;68.93
74474;BME280;62922;-6.168;106.796;2023-03-11T01:57:35;101219.44;;;29.80;68.94
74474;BME280;62922;-6.168;106.796;2023-03-11T02:00:03;101207.03;;;29.81;69.04
74474;BME280;62922;-6.168;106.796;2023-03-11T02:02:35;101212.69;;;29.81;68.92
74474;BME280;62922;-6.168;106.796;2023-03-11T02:05:04;101210.38;;;29.83;69.02
74474;BME280;62922;-6.168;106.796;2023-03-11T02:07:30;101202.75;;;29.84;69.03
74474;BME280;62922;-6.168;106.796;2023-03-11T02:09:56;101207.25;;;29.85;68.93
74474;BME280;62922;-6.168;106.796;2023-03-11T02:12:21;101196.81;;;29.85;69.09
74474;BME280;62922;-6.168;106.796;2023-03-11T02:14:48;101216.22;;;29.87;68.84
74474;BME280;62922;-6.168;106.796;2023-03-11T02:17:16;101210.59;;;29.87;69.06
74474;BME280;62922;-6.168;106.796;2023-03-11T02:22:30;101213.91;;;29.89;68.84
74474;BME280;62922;-6.168;106.796;2023-03-11T02:27:44;101210.78;;;29.90;68.92
74474;BME280;62922;-6.168;106.796;2023-03-11T02:30:12;101212.44;;;29.91;68.89
74474;BME280;62922;-6.168;106.796;2023-03-11T02:32:38;101207.97;;;29.90;68.73
74474;BME280;62922;-6.168;106.796;2023-03-11T02:35:05;101197.22;;;29.92;68.89
74474;BME280;62922;-6.168;106.796;2023-03-11T02:37:31;101194.09;;;29.94;68.70
74474;BME280;62922;-6.168;106.796;2023-03-11T02:42:32;101186.97;;;29.96;68.97
74474;BME280;62922;-6.168;106.796;2023-03-11T02:45:00;101184.16;;;29.96;68.75
74474;BME280;62922;-6.168;106.796;2023-03-11T02:47:27;101183.88;;;29.98;68.90
74474;BME280;62922;-6.168;106.796;2023-03-11T02:49:53;101180.72;;;29.99;68.73
74474;BME280;62922;-6.168;106.796;2023-03-11T02:52:21;101188.53;;;30.02;68.63
74474;BME280;62922;-6.168;106.796;2023-03-11T02:54:47;101180.09;;;30.02;68.69
74474;BME280;62922;-6.168;106.796;2023-03-11T02:57:13;101180.59;;;30.04;68.72
74474;BME280;62922;-6.168;106.796;2023-03-11T02:59:39;101181.13;;;30.06;68.56
74474;BME280;62922;-6.168;106.796;2023-03-11T03:02:04;101180.78;;;30.08;68.55
74474;BME280;62922;-6.168;106.796;2023-03-11T03:04:30;101176.53;;;30.10;68.64
74474;BME280;62922;-6.168;106.796;2023-03-11T03:06:56;101172.53;;;30.11;68.36
74474;BME280;62922;-6.168;106.796;2023-03-11T03:09:22;101166.59;;;30.13;68.68
74474;BME280;62922;-6.168;106.796;2023-03-11T03:11:48;101163.47;;;30.14;68.56
74474;BME280;62922;-6.168;106.796;2023-03-11T03:14:14;101172.41;;;30.16;68.65
74474;BME280;62922;-6.168;106.796;2023-03-11T03:16:40;101162.50;;;30.19;68.21
74474;BME280;62922;-6.168;106.796;2023-03-11T03:19:05;101164.66;;;30.22;68.20
74474;BME280;62922;-6.168;106.796;2023-03-11T03:21:31;101171.13;;;30.22;68.32
74474;BME280;62922;-6.168;106.796;2023-03-11T03:23:57;101163.22;;;30.24;68.86
74474;BME280;62922;-6.168;106.796;2023-03-11T03:26:23;101174.19;;;30.26;68.43
74474;BME280;62922;-6.168;106.796;2023-03-11T03:28:49;101171.88;;;30.28;68.27
74474;BME280;62922;-6.168;106.796;2023-03-11T03:31:15;101164.59;;;30.27;68.36
74474;BME280;62922;-6.168;106.796;2023-03-11T03:33:41;101170.41;;;30.30;68.13
74474;BME280;62922;-6.168;106.796;2023-03-11T03:36:08;101161.63;;;30.32;68.24
74474;BME280;62922;-6.168;106.796;2023-03-11T03:38:34;101165.28;;;30.32;68.04
74474;BME280;62922;-6.168;106.796;2023-03-11T03:41:00;101158.19;;;30.35;67.85
74474;BME280;62922;-6.168;106.796;2023-03-11T03:43:26;101152.22;;;30.36;67.91
74474;BME280;62922;-6.168;106.796;2023-03-11T03:45:55;101164.84;;;30.39;68.07
74474;BME280;62922;-6.168;106.796;2023-03-11T03:48:20;101148.78;;;30.39;68.42
74474;BME280;62922;-6.168;106.796;2023-03-11T03:50:46;101158.53;;;30.42;68.57
74474;BME280;62922;-6.168;106.796;2023-03-11T03:53:12;101144.47;;;30.42;68.35
74474;BME280;62922;-6.168;106.796;2023-03-11T03:55:38;101152.91;;;30.42;68.45
74474;BME280;62922;-6.168;106.796;2023-03-11T03:58:04;101147.78;;;30.44;68.42
74474;BME280;62922;-6.168;106.796;2023-03-11T04:00:30;101135.06;;;30.46;68.59
74474;BME280;62922;-6.168;106.796;2023-03-11T04:02:56;101129.09;;;30.48;68.47
74474;BME280;62922;-6.168;106.796;2023-03-11T04:05:22;101130.47;;;30.50;68.05
74474;BME280;62922;-6.168;106.796;2023-03-11T04:07:51;101132.63;;;30.53;68.34
74474;BME280;62922;-6.168;106.796;2023-03-11T04:10:17;101116.56;;;30.54;68.18
74474;BME280;62922;-6.168;106.796;2023-03-11T04:12:43;101120.72;;;30.56;67.99
74474;BME280;62922;-6.168;106.796;2023-03-11T04:15:09;101119.56;;;30.57;68.00
74474;BME280;62922;-6.168;106.796;2023-03-11T04:17:35;101106.81;;;30.60;68.07
74474;BME280;62922;-6.168;106.796;2023-03-11T04:20:01;101103.69;;;30.61;68.04
74474;BME280;62922;-6.168;106.796;2023-03-11T04:22:27;101095.22;;;30.61;68.05
74474;BME280;62922;-6.168;106.796;2023-03-11T04:24:53;101092.41;;;30.61;67.98
74474;BME280;62922;-6.168;106.796;2023-03-11T04:27:18;101094.56;;;30.64;67.70
74474;BME280;62922;-6.168;106.796;2023-03-11T04:29:44;101097.06;;;30.66;68.07
74474;BME280;62922;-6.168;106.796;2023-03-11T04:32:10;101097.06;;;30.66;67.78
74474;BME280;62922;-6.168;106.796;2023-03-11T04:34:36;101099.25;;;30.69;67.74
74474;BME280;62922;-6.168;106.796;2023-03-11T04:37:02;101095.59;;;30.68;67.69
74474;BME280;62922;-6.168;106.796;2023-03-11T04:39:28;101089.63;;;30.70;67.88
74474;BME280;62922;-6.168;106.796;2023-03-11T04:41:54;101094.94;;;30.72;67.40
74474;BME280;62922;-6.168;106.796;2023-03-11T04:44:22;101086.16;;;30.73;67.54
74474;BME280;62922;-6.168;106.796;2023-03-11T04:46:48;101088.66;;;30.75;67.85
74474;BME280;62922;-6.168;106.796;2023-03-11T04:49:14;101082.38;;;30.78;67.73
74474;BME280;62922;-6.168;106.796;2023-03-11T04:51:40;101081.69;;;30.81;67.33
74474;BME280;62922;-6.168;106.796;2023-03-11T04:54:06;101073.25;;;30.81;67.54
74474;BME280;62922;-6.168;106.796;2023-03-11T04:56:32;101076.59;;;30.83;67.78
74474;BME280;62922;-6.168;106.796;2023-03-11T04:58:58;101071.47;;;30.85;67.75
74474;BME280;62922;-6.168;106.796;2023-03-11T05:01:24;101068.31;;;30.86;67.50
74474;BME280;62922;-6.168;106.796;2023-03-11T05:03:50;101057.91;;;30.87;67.42
74474;BME280;62922;-6.168;106.796;2023-03-11T05:06:16;101056.41;;;30.89;67.37
74474;BME280;62922;-6.168;106.796;2023-03-11T05:08:42;101065.69;;;30.90;67.30
74474;BME280;62922;-6.168;106.796;2023-03-11T05:11:08;101049.28;;;30.92;67.06
74474;BME280;62922;-6.168;106.796;2023-03-11T05:13:34;101048.31;;;30.96;67.35
74474;BME280;62922;-6.168;106.796;2023-03-11T05:16:00;101047.16;;;30.97;67.29
74474;BME280;62922;-6.168;106.796;2023-03-11T05:18:26;101044.00;;;30.99;66.92
74474;BME280;62922;-6.168;106.796;2023-03-11T05:20:52;101028.09;;;31.03;67.05
74474;BME280;62922;-6.168;106.796;2023-03-11T05:23:18;101030.28;;;31.06;66.86
74474;BME280;62922;-6.168;106.796;2023-03-11T05:25:44;101027.13;;;31.07;66.81
74474;BME280;62922;-6.168;106.796;2023-03-11T05:28:10;101020.81;;;31.10;67.24
74474;BME280;62922;-6.168;106.796;2023-03-11T05:30:36;101031.75;;;31.12;66.86
74474;BME280;62922;-6.168;106.796;2023-03-11T05:33:02;101026.63;;;31.14;66.79
74474;BME280;62922;-6.168;106.796;2023-03-11T05:35:28;101012.19;;;31.15;66.86
74474;BME280;62922;-6.168;106.796;2023-03-11T05:37:54;101011.53;;;31.18;66.79
74474;BME280;62922;-6.168;106.796;2023-03-11T05:40:20;100999.09;;;31.19;66.92
74474;BME280;62922;-6.168;106.796;2023-03-11T05:42:46;100998.44;;;31.22;66.70
74474;BME280;62922;-6.168;106.796;2023-03-11T05:45:12;100976.69;;;31.23;66.93
74474;BME280;62922;-6.168;106.796;2023-03-11T05:47:38;100981.53;;;31.22;66.74
74474;BME280;62922;-6.168;106.796;2023-03-11T05:50:06;100973.53;;;31.24;66.50
74474;BME280;62922;-6.168;106.796;2023-03-11T05:52:33;100969.59;;;31.25;66.84
74474;BME280;62922;-6.168;106.796;2023-03-11T05:54:59;100963.28;;;31.28;66.92
74474;BME280;62922;-6.168;106.796;2023-03-11T05:57:24;100951.66;;;31.30;66.70
74474;BME280;62922;-6.168;106.796;2023-03-11T05:59:50;100952.16;;;31.32;66.67
74474;BME280;62922;-6.168;106.796;2023-03-11T06:02:16;100951.00;;;31.33;66.27
74474;BME280;62922;-6.168;106.796;2023-03-11T06:04:42;100949.84;;;31.34;66.56
74474;BME280;62922;-6.168;106.796;2023-03-11T06:07:08;100934.28;;;31.36;66.34
74474;BME280;62922;-6.168;106.796;2023-03-11T06:09:36;100936.75;;;31.38;66.82
74474;BME280;62922;-6.168;106.796;2023-03-11T06:12:03;100927.63;;;31.41;66.34
74474;BME280;62922;-6.168;106.796;2023-03-11T06:14:31;100925.31;;;31.43;66.82
74474;BME280;62922;-6.168;106.796;2023-03-11T06:16:57;100918.50;;;31.44;66.13
74474;BME280;62922;-6.168;106.796;2023-03-11T06:19:24;100908.53;;;31.46;66.19
74474;BME280;62922;-6.168;106.796;2023-03-11T06:21:50;100909.03;;;31.48;66.07
74474;BME280;62922;-6.168;106.796;2023-03-11T06:24:16;100917.16;;;31.50;66.07
74474;BME280;62922;-6.168;106.796;2023-03-11T06:26:41;100905.88;;;31.50;66.34
74474;BME280;62922;-6.168;106.796;2023-03-11T06:29:10;100901.91;;;31.51;66.15
74474;BME280;62922;-6.168;106.796;2023-03-11T06:31:37;100900.41;;;31.53;66.42
74474;BME280;62922;-6.168;106.796;2023-03-11T06:34:04;100892.59;;;31.50;66.10
74474;BME280;62922;-6.168;106.796;2023-03-11T06:36:30;100887.81;;;31.51;65.80
74474;BME280;62922;-6.168;106.796;2023-03-11T06:38:56;100882.31;;;31.54;65.59
74474;BME280;62922;-6.168;106.796;2023-03-11T06:41:25;100881.63;;;31.57;65.65
74474;BME280;62922;-6.168;106.796;2023-03-11T06:43:51;100885.78;;;31.60;66.08
74474;BME280;62922;-6.168;106.796;2023-03-11T06:46:18;100873.00;;;31.63;65.50
74474;BME280;62922;-6.168;106.796;2023-03-11T06:48:45;100863.72;;;31.62;65.62
74474;BME280;62922;-6.168;106.796;2023-03-11T06:51:11;100857.72;;;31.63;65.58
74474;BME280;62922;-6.168;106.796;2023-03-11T06:53:37;100854.22;;;31.67;65.57
74474;BME280;62922;-6.168;106.796;2023-03-11T06:56:05;100850.25;;;31.68;65.97
74474;BME280;62922;-6.168;106.796;2023-03-11T06:58:31;100851.56;;;31.70;65.55
74474;BME280;62922;-6.168;106.796;2023-03-11T07:01:02;100845.59;;;31.72;65.95
74474;BME280;62922;-6.168;106.796;2023-03-11T07:03:29;100833.13;;;31.73;65.64
74474;BME280;62922;-6.168;106.796;2023-03-11T07:05:55;100829.97;;;31.74;65.81
74474;BME280;62922;-6.168;106.796;2023-03-11T07:08:21;100838.44;;;31.74;65.71
74474;BME280;62922;-6.168;106.796;2023-03-11T07:10:57;100837.28;;;31.75;65.10
74474;BME280;62922;-6.168;106.796;2023-03-11T07:13:23;100851.88;;;31.77;65.10
74474;BME280;62922;-6.168;106.796;2023-03-11T07:15:57;100844.22;;;31.78;65.49
74474;BME280;62922;-6.168;106.796;2023-03-11T07:18:23;100845.56;;;31.80;65.06
74474;BME280;62922;-6.168;106.796;2023-03-11T07:20:49;100840.41;;;31.82;65.29
74474;BME280;62922;-6.168;106.796;2023-03-11T07:23:15;100840.91;;;31.84;65.41
74474;BME280;62922;-6.168;106.796;2023-03-11T07:25:45;100831.25;;;31.85;65.69
74474;BME280;62922;-6.168;106.796;2023-03-11T07:28:11;100832.09;;;31.86;65.49
74474;BME280;62922;-6.168;106.796;2023-03-11T07:30:37;100822.44;;;31.87;65.62
74474;BME280;62922;-6.168;106.796;2023-03-11T07:33:03;100822.94;;;31.89;65.11
74474;BME280;62922;-6.168;106.796;2023-03-11T07:35:29;100827.09;;;31.91;65.60
74474;BME280;62922;-6.168;106.796;2023-03-11T07:37:55;100817.16;;;31.94;65.60
74474;BME280;62922;-6.168;106.796;2023-03-11T07:40:21;100818.44;;;31.96;65.52
74474;BME280;62922;-6.168;106.796;2023-03-11T07:42:47;100805.16;;;31.97;65.52
74474;BME280;62922;-6.168;106.796;2023-03-11T07:45:13;100813.28;;;31.98;65.15
74474;BME280;62922;-6.168;106.796;2023-03-11T07:47:39;100804.47;;;32.00;65.24
74474;BME280;62922;-6.168;106.796;2023-03-11T07:50:05;100801.31;;;32.01;65.43
74474;BME280;62922;-6.168;106.796;2023-03-11T07:52:31;100799.31;;;32.02;65.33
74474;BME280;62922;-6.168;106.796;2023-03-11T07:54:57;100799.81;;;32.04;65.38
74474;BME280;62922;-6.168;106.796;2023-03-11T07:57:23;100798.66;;;32.05;65.27
74474;BME280;62922;-6.168;106.796;2023-03-11T07:59:49;100793.47;;;32.07;65.19
74474;BME280;62922;-6.168;106.796;2023-03-11T08:02:15;100795.47;;;32.06;65.17
74474;BME280;62922;-6.168;106.796;2023-03-11T08:04:41;100787.50;;;32.08;65.04
74474;BME280;62922;-6.168;106.796;2023-03-11T08:07:07;100779.84;;;32.09;64.54
74474;BME280;62922;-6.168;106.796;2023-03-11T08:09:33;100767.75;;;32.08;64.84
74474;BME280;62922;-6.168;106.796;2023-03-11T08:11:59;100775.03;;;32.09;64.78
74474;BME280;62922;-6.168;106.796;2023-03-11T08:14:25;100769.88;;;32.11;64.61
74474;BME280;62922;-6.168;106.796;2023-03-11T08:16:51;100772.34;;;32.13;64.71
74474;BME280;62922;-6.168;106.796;2023-03-11T08:19:17;100788.94;;;32.14;64.13
74474;BME280;62922;-6.168;106.796;2023-03-11T08:21:43;100780.47;;;32.14;64.12
74474;BME280;62922;-6.168;106.796;2023-03-11T08:24:09;100779.31;;;32.15;64.50
74474;BME280;62922;-6.168;106.796;2023-03-11T08:26:38;100797.91;;;32.16;64.25
74474;BME280;62922;-6.168;106.796;2023-03-11T08:29:04;100798.72;;;32.17;63.97
74474;BME280;62922;-6.168;106.796;2023-03-11T08:31:31;100802.88;;;32.19;64.15
74474;BME280;62922;-6.168;106.796;2023-03-11T08:34:00;100798.03;;;32.20;63.94
74474;BME280;62922;-6.168;106.796;2023-03-11T08:36:26;100792.06;;;32.21;64.20
74474;BME280;62922;-6.168;106.796;2023-03-11T08:38:52;100799.00;;;32.24;64.00
74474;BME280;62922;-6.168;106.796;2023-03-11T08:41:18;100785.25;;;32.22;64.35
74474;BME280;62922;-6.168;106.796;2023-03-11T08:43:44;100795.03;;;32.25;64.39
74474;BME280;62922;-6.168;106.796;2023-03-11T08:48:46;100796.31;;;32.27;63.54
74474;BME280;62922;-6.168;106.796;2023-03-11T08:51:11;100795.16;;;32.28;63.81
74474;BME280;62922;-6.168;106.796;2023-03-11T08:53:37;100796.81;;;32.29;63.89
74474;BME280;62922;-6.168;106.796;2023-03-11T08:56:03;100804.59;;;32.32;64.02
74474;BME280;62922;-6.168;106.796;2023-03-11T08:58:29;100809.91;;;32.34;63.44
74474;BME280;62922;-6.168;106.796;2023-03-11T09:00:58;100813.91;;;32.33;63.30
74474;BME280;62922;-6.168;106.796;2023-03-11T09:03:23;100806.59;;;32.32;63.02
74474;BME280;62922;-6.168;106.796;2023-03-11T09:05:55;100801.75;;;32.32;63.10
74474;BME280;62922;-6.168;106.796;2023-03-11T09:08:21;100805.78;;;32.31;62.93
74474;BME280;62922;-6.168;106.796;2023-03-11T09:10:46;100809.91;;;32.34;63.44
74474;BME280;62922;-6.168;106.796;2023-03-11T09:13:12;100826.88;;;32.34;62.97
74474;BME280;62922;-6.168;106.796;2023-03-11T09:15:38;100837.31;;;32.33;62.63
74474;BME280;62922;-6.168;106.796;2023-03-11T09:18:10;100827.66;;;32.34;62.91
74474;BME280;62922;-6.168;106.796;2023-03-11T09:20:39;100831.81;;;32.37;63.14
74474;BME280;62922;-6.168;106.796;2023-03-11T09:23:05;100842.59;;;32.43;65.01
74474;BME280;62922;-6.168;106.796;2023-03-11T09:25:31;100842.69;;;32.55;67.44
74474;BME280;62922;-6.168;106.796;2023-03-11T09:27:57;100846.75;;;32.67;67.85
74474;BME280;62922;-6.168;106.796;2023-03-11T09:30:23;100847.72;;;32.71;69.23
74474;BME280;62922;-6.168;106.796;2023-03-11T09:32:49;100838.75;;;32.69;69.63
74474;BME280;62922;-6.168;106.796;2023-03-11T09:35:14;100843.94;;;32.67;68.87
74474;BME280;62922;-6.168;106.796;2023-03-11T09:37:40;100837.78;;;32.65;68.30
74474;BME280;62922;-6.168;106.796;2023-03-11T09:40:06;100834.97;;;32.65;68.69
74474;BME280;62922;-6.168;106.796;2023-03-11T09:42:36;100847.09;;;32.65;68.58
74474;BME280;62922;-6.168;106.796;2023-03-11T09:45:10;100849.09;;;32.65;68.34
74474;BME280;62922;-6.168;106.796;2023-03-11T09:50:10;100843.44;;;32.65;68.88
74474;BME280;62922;-6.168;106.796;2023-03-11T09:55:35;100839.13;;;32.67;69.15
74474;BME280;62922;-6.168;106.796;2023-03-11T09:57:56;100846.91;;;32.70;68.91
74474;BME280;62922;-6.168;106.796;2023-03-11T10:00:23;100840.06;;;32.71;69.62
74474;BME280;62922;-6.168;106.796;2023-03-11T10:02:49;100848.53;;;32.71;69.86
74474;BME280;62922;-6.168;106.796;2023-03-11T10:05:27;100854.19;;;32.71;69.93
74474;BME280;62922;-6.168;106.796;2023-03-11T10:07:56;100862.66;;;32.71;69.72
74474;BME280;62922;-6.168;106.796;2023-03-11T10:10:25;100865.16;;;32.73;69.68
74474;BME280;62922;-6.168;106.796;2023-03-11T10:12:58;100865.16;;;32.73;69.48
74474;BME280;62922;-6.168;106.796;2023-03-11T10:28:11;100892.59;;;32.72;68.27
74474;BME280;62922;-6.168;106.796;2023-03-11T10:30:42;100896.25;;;32.73;67.85
74474;BME280;62922;-6.168;106.796;2023-03-11T10:35:48;100902.72;;;32.73;67.72
74474;BME280;62922;-6.168;106.796;2023-03-11T10:38:20;100899.09;;;32.73;67.25
74474;BME280;62922;-6.168;106.796;2023-03-11T10:40:47;100903.56;;;32.74;67.78
74474;BME280;62922;-6.168;106.796;2023-03-11T10:43:16;100907.56;;;32.73;66.99
74474;BME280;62922;-6.168;106.796;2023-03-11T10:45:45;100912.38;;;32.72;67.25
74474;BME280;62922;-6.168;106.796;2023-03-11T10:48:14;100922.00;;;32.71;67.39
74474;BME280;62922;-6.168;106.796;2023-03-11T10:53:26;100934.84;;;32.69;67.31
74474;BME280;62922;-6.168;106.796;2023-03-11T10:55:54;100943.31;;;32.69;67.23
74474;BME280;62922;-6.168;106.796;2023-03-11T10:58:21;100941.66;;;32.68;67.10
74474;BME280;62922;-6.168;106.796;2023-03-11T11:03:33;100942.84;;;32.67;66.40
74474;BME280;62922;-6.168;106.796;2023-03-11T11:06:02;100942.00;;;32.66;67.05
74474;BME280;62922;-6.168;106.796;2023-03-11T11:08:28;100956.13;;;32.66;66.73
74474;BME280;62922;-6.168;106.796;2023-03-11T11:10:57;100962.13;;;32.65;66.19
74474;BME280;62922;-6.168;106.796;2023-03-11T11:13:26;100962.13;;;32.65;66.55
74474;BME280;62922;-6.168;106.796;2023-03-11T11:18:26;100973.44;;;32.65;66.14
74474;BME280;62922;-6.168;106.796;2023-03-11T11:23:30;100974.25;;;32.65;66.58
74474;BME280;62922;-6.168;106.796;2023-03-11T11:25:58;100975.06;;;32.66;65.75
74474;BME280;62922;-6.168;106.796;2023-03-11T11:28:24;100975.75;;;32.63;65.75
74474;BME280;62922;-6.168;106.796;2023-03-11T11:33:20;100989.41;;;32.61;65.63
74474;BME280;62922;-6.168;106.796;2023-03-11T11:35:48;100992.22;;;32.61;65.95
74474;BME280;62922;-6.168;106.796;2023-03-11T11:38:14;101000.69;;;32.61;65.83
74474;BME280;62922;-6.168;106.796;2023-03-11T11:40:40;101000.69;;;32.61;65.88
74474;BME280;62922;-6.168;106.796;2023-03-11T11:45:37;101009.66;;;32.63;65.24
74474;BME280;62922;-6.168;106.796;2023-03-11T11:50:51;101005.03;;;32.58;65.45
74474;BME280;62922;-6.168;106.796;2023-03-11T11:56:03;101022.63;;;32.64;65.45
74474;BME280;62922;-6.168;106.796;2023-03-11T11:58:29;101027.13;;;32.65;65.96
74474;BME280;62922;-6.168;106.796;2023-03-11T12:03:56;101026.63;;;32.63;66.32
74474;BME280;62922;-6.168;106.796;2023-03-11T12:11:43;101051.56;;;32.61;65.77
74474;BME280;62922;-6.168;106.796;2023-03-11T12:23:58;101052.91;;;32.54;66.70
74474;BME280;62922;-6.168;106.796;2023-03-11T12:26:31;101047.59;;;32.53;66.21
74474;BME280;62922;-6.168;106.796;2023-03-11T12:29:01;101045.13;;;32.51;66.07
74474;BME280;62922;-6.168;106.796;2023-03-11T12:31:32;101035.00;;;32.50;66.91
74474;BME280;62922;-6.168;106.796;2023-03-11T12:34:01;101043.00;;;32.48;66.61
74474;BME280;62922;-6.168;106.796;2023-03-11T12:36:34;101045.81;;;32.48;67.23
74474;BME280;62922;-6.168;106.796;2023-03-11T12:39:01;101050.97;;;32.46;66.79
74474;BME280;62922;-6.168;106.796;2023-03-11T12:44:02;101033.19;;;32.46;67.61
74474;BME280;62922;-6.168;106.796;2023-03-11T12:49:14;101041.81;;;32.41;67.16
74474;BME280;62922;-6.168;106.796;2023-03-11T12:54:34;101056.28;;;32.39;67.05
74474;BME280;62922;-6.168;106.796;2023-03-11T12:57:22;101062.25;;;32.38;67.10
74474;BME280;62922;-6.168;106.796;2023-03-11T13:05:04;101081.38;;;32.32;67.69
74474;BME280;62922;-6.168;106.796;2023-03-11T13:23:27;101088.72;;;32.25;67.59
74474;BME280;62922;-6.168;106.796;2023-03-11T13:33:23;101088.06;;;32.19;66.92
74474;BME280;62922;-6.168;106.796;2023-03-11T13:43:52;101087.06;;;32.15;67.31
74474;BME280;62922;-6.168;106.796;2023-03-11T13:48:47;101089.75;;;32.12;66.79
74474;BME280;62922;-6.168;106.796;2023-03-11T13:51:17;101099.38;;;32.11;66.93
74474;BME280;62922;-6.168;106.796;2023-03-11T13:53:46;101104.19;;;32.10;66.65
74474;BME280;62922;-6.168;106.796;2023-03-11T13:56:15;101114.66;;;32.10;66.89
74474;BME280;62922;-6.168;106.796;2023-03-11T13:58:42;101106.53;;;32.08;66.69
74474;BME280;62922;-6.168;106.796;2023-03-11T14:01:10;101119.81;;;32.08;66.67
74474;BME280;62922;-6.168;106.796;2023-03-11T14:03:42;101108.84;;;32.06;66.68
74474;BME280;62922;-6.168;106.796;2023-03-11T14:06:10;101107.16;;;32.05;66.52
74474;BME280;62922;-6.168;106.796;2023-03-11T14:08:38;101105.53;;;32.04;66.55
74474;BME280;62922;-6.168;106.796;2023-03-11T14:18:40;101124.63;;;31.99;66.77
74474;BME280;62922;-6.168;106.796;2023-03-11T14:21:11;101115.31;;;31.98;66.56
74474;BME280;62922;-6.168;106.796;2023-03-11T14:23:47;101123.28;;;31.96;66.94
74474;BME280;62922;-6.168;106.796;2023-03-11T14:26:15;101114.00;;;31.96;67.01
74474;BME280;62922;-6.168;106.796;2023-03-11T14:28:44;101137.75;;;31.95;66.49
74474;BME280;62922;-6.168;106.796;2023-03-11T14:31:20;101138.91;;;31.94;66.92
74474;BME280;62922;-6.168;106.796;2023-03-11T14:33:58;101142.88;;;31.93;66.93